sensor_id;sensor_type;location;lat;lon;timestamp;P1;durP1;ratioP1;P2;durP2;ratioP2
7150;SDS011;3617;48.836;9.172;2023-05-16T00:01:13;13.67;;;8.50;;
7150;SDS011;3617;48.836;9.172;2023-05-16T00:03:40;12.90;;;8.33;;
7150;SDS011;3617;48.836;9.172;2023-05-16T00:06:07;11.90;;;8.50;;
7150;SDS011;3617;48.836;9.172;2023-05-16T00:08:33;12.90;;;8.23;;
7150;SDS011;3617;48.836;9.172;2023-05-16T00:10:59;10.50;;;7.70;;
7150;SDS011;3617;48.836;9.172;2023-05-16T00:13:25;12.97;;;8.57;;
7150;SDS011;3617;48.836;9.172;2023-05-16T00:15:52;12.60;;;8.17;;
7150;SDS011;3617;48.836;9.172;2023-05-16T00:18:19;11.93;;;8.37;;
7150;SDS011;3617;48.836;9.172;2023-05-16T00:20:46;15.93;;;9.07;;
7150;SDS011;3617;48.836;9.172;2023-05-16T00:23:13;13.07;;;8.43;;
7150;SDS011;3617;48.836;9.172;2023-05-16T00:25:39;13.60;;;9.20;;
7150;SDS011;3617;48.836;9.172;2023-05-16T00:28:05;13.47;;;9.00;;
7150;SDS011;3617;48.836;9.172;2023-05-16T00:30:32;11.80;;;8.47;;
7150;SDS011;3617;48.836;9.172;2023-05-16T00:32:58;14.00;;;9.33;;
7150;SDS011;3617;48.836;9.172;2023-05-16T00:35:24;13.53;;;9.10;;
7150;SDS011;3617;48.836;9.172;2023-05-16T00:37:51;13.90;;;9.00;;
7150;SDS011;3617;48.836;9.172;2023-05-16T00:40:17;14.63;;;9.77;;
7150;SDS011;3617;48.836;9.172;2023-05-16T00:42:43;13.70;;;9.23;;
7150;SDS011;3617;48.836;9.172;2023-05-16T00:45:09;13.37;;;9.20;;
7150;SDS011;3617;48.836;9.172;2023-05-16T00:47:36;14.23;;;9.67;;
7150;SDS011;3617;48.836;9.172;2023-05-16T00:50:02;15.87;;;10.23;;
7150;SDS011;3617;48.836;9.172;2023-05-16T00:52:28;19.57;;;11.97;;
7150;SDS011;3617;48.836;9.172;2023-05-16T00:54:57;23.23;;;12.13;;
7150;SDS011;3617;48.836;9.172;2023-05-16T00:57:23;18.90;;;11.47;;
7150;SDS011;3617;48.836;9.172;2023-05-16T00:59:49;17.53;;;11.87;;
7150;SDS011;3617;48.836;9.172;2023-05-16T01:02:15;19.57;;;11.70;;
7150;SDS011;3617;48.836;9.172;2023-05-16T01:04:42;20.30;;;12.40;;
7150;SDS011;3617;48.836;9.172;2023-05-16T01:07:08;19.80;;;12.27;;
7150;SDS011;3617;48.836;9.172;2023-05-16T01:09:34;19.60;;;11.87;;
7150;SDS011;3617;48.836;9.172;2023-05-16T01:12:06;17.90;;;11.07;;
7150;SDS011;3617;48.836;9.172;2023-05-16T01:14:42;17.93;;;11.20;;
7150;SDS011;3617;48.836;9.172;2023-05-16T01:17:13;16.80;;;11.40;;
7150;SDS011;3617;48.836;9.172;2023-05-16T01:22:15;19.10;;;11.93;;
7150;SDS011;3617;48.836;9.172;2023-05-16T01:27:11;21.40;;;12.97;;
7150;SDS011;3617;48.836;9.172;2023-05-16T01:29:38;22.77;;;13.37;;
7150;SDS011;3617;48.836;9.172;2023-05-16T01:32:04;21.97;;;14.03;;
7150;SDS011;3617;48.836;9.172;2023-05-16T01:34:30;24.70;;;14.40;;
7150;SDS011;3617;48.836;9.172;2023-05-16T01:37:03;23.03;;;13.90;;
7150;SDS011;3617;48.836;9.172;2023-05-16T01:39:38;22.57;;;14.20;;
7150;SDS011;3617;48.836;9.172;2023-05-16T01:44:34;26.63;;;15.60;;
7150;SDS011;3617;48.836;9.172;2023-05-16T01:47:01;25.13;;;14.97;;
7150;SDS011;3617;48.836;9.172;2023-05-16T01:49:38;26.10;;;15.63;;
7150;SDS011;3617;48.836;9.172;2023-05-16T01:52:07;30.07;;;17.23;;
7150;SDS011;3617;48.836;9.172;2023-05-16T01:54:37;29.13;;;15.67;;
7150;SDS011;3617;48.836;9.172;2023-05-16T01:57:06;29.47;;;16.57;;
7150;SDS011;3617;48.836;9.172;2023-05-16T01:59:33;28.40;;;16.17;;
7150;SDS011;3617;48.836;9.172;2023-05-16T02:02:00;30.13;;;17.27;;
7150;SDS011;3617;48.836;9.172;2023-05-16T02:04:28;30.60;;;16.97;;
7150;SDS011;3617;48.836;9.172;2023-05-16T02:06:54;30.83;;;17.43;;
7150;SDS011;3617;48.836;9.172;2023-05-16T02:12:13;32.67;;;17.83;;
7150;SDS011;3617;48.836;9.172;2023-05-16T02:14:42;31.33;;;17.33;;
7150;SDS011;3617;48.836;9.172;2023-05-16T02:17:11;32.30;;;17.93;;
7150;SDS011;3617;48.836;9.172;2023-05-16T02:19:41;35.17;;;18.30;;
7150;SDS011;3617;48.836;9.172;2023-05-16T02:22:15;31.93;;;17.50;;
7150;SDS011;3617;48.836;9.172;2023-05-16T02:24:47;32.23;;;17.43;;
7150;SDS011;3617;48.836;9.172;2023-05-16T02:27:28;30.43;;;17.40;;
7150;SDS011;3617;48.836;9.172;2023-05-16T02:30:02;33.67;;;17.40;;
7150;SDS011;3617;48.836;9.172;2023-05-16T02:33:14;29.47;;;16.47;;
7150;SDS011;3617;48.836;9.172;2023-05-16T02:35:43;31.57;;;17.67;;
7150;SDS011;3617;48.836;9.172;2023-05-16T02:38:09;33.83;;;18.23;;
7150;SDS011;3617;48.836;9.172;2023-05-16T02:40:48;33.97;;;18.53;;
7150;SDS011;3617;48.836;9.172;2023-05-16T02:43:26;32.63;;;18.37;;
7150;SDS011;3617;48.836;9.172;2023-05-16T02:45:57;34.37;;;17.90;;
7150;SDS011;3617;48.836;9.172;2023-05-16T02:48:29;33.10;;;18.00;;
7150;SDS011;3617;48.836;9.172;2023-05-16T02:51:13;34.10;;;18.60;;
7150;SDS011;3617;48.836;9.172;2023-05-16T02:53:46;35.97;;;18.80;;
7150;SDS011;3617;48.836;9.172;2023-05-16T02:56:35;33.33;;;18.80;;
7150;SDS011;3617;48.836;9.172;2023-05-16T02:59:10;34.37;;;18.20;;
7150;SDS011;3617;48.836;9.172;2023-05-16T03:01:39;33.33;;;19.00;;
7150;SDS011;3617;48.836;9.172;2023-05-16T03:04:16;37.07;;;18.47;;
7150;SDS011;3617;48.836;9.172;2023-05-16T03:06:50;36.73;;;19.17;;
7150;SDS011;3617;48.836;9.172;2023-05-16T03:09:29;38.67;;;19.60;;
7150;SDS011;3617;48.836;9.172;2023-05-16T03:12:01;34.30;;;20.07;;
7150;SDS011;3617;48.836;9.172;2023-05-16T03:14:31;37.97;;;19.07;;
7150;SDS011;3617;48.836;9.172;2023-05-16T03:17:01;37.93;;;19.03;;
7150;SDS011;3617;48.836;9.172;2023-05-16T03:19:27;39.17;;;18.93;;
7150;SDS011;3617;48.836;9.172;2023-05-16T03:21:55;36.40;;;18.90;;
7150;SDS011;3617;48.836;9.172;2023-05-16T03:24:32;38.03;;;19.87;;
7150;SDS011;3617;48.836;9.172;2023-05-16T03:27:06;37.43;;;19.53;;
7150;SDS011;3617;48.836;9.172;2023-05-16T03:29:38;38.77;;;20.53;;
7150;SDS011;3617;48.836;9.172;2023-05-16T03:32:23;47.10;;;20.77;;
7150;SDS011;3617;48.836;9.172;2023-05-16T03:35:11;39.07;;;19.87;;
7150;SDS011;3617;48.836;9.172;2023-05-16T03:37:53;41.70;;;20.43;;
7150;SDS011;3617;48.836;9.172;2023-05-16T03:40:37;40.87;;;19.67;;
7150;SDS011;3617;48.836;9.172;2023-05-16T03:43:12;46.53;;;21.97;;
7150;SDS011;3617;48.836;9.172;2023-05-16T03:45:48;46.23;;;21.27;;
7150;SDS011;3617;48.836;9.172;2023-05-16T03:51:26;46.23;;;20.97;;
7150;SDS011;3617;48.836;9.172;2023-05-16T03:54:03;42.40;;;20.43;;
7150;SDS011;3617;48.836;9.172;2023-05-16T03:56:38;40.67;;;21.00;;
7150;SDS011;3617;48.836;9.172;2023-05-16T03:59:23;48.33;;;22.40;;
7150;SDS011;3617;48.836;9.172;2023-05-16T04:01:51;49.90;;;22.13;;
7150;SDS011;3617;48.836;9.172;2023-05-16T04:07:23;41.27;;;20.23;;
7150;SDS011;3617;48.836;9.172;2023-05-16T04:09:58;42.30;;;22.57;;
7150;SDS011;3617;48.836;9.172;2023-05-16T04:12:27;41.97;;;20.90;;
7150;SDS011;3617;48.836;9.172;2023-05-16T04:14:58;50.27;;;21.50;;
7150;SDS011;3617;48.836;9.172;2023-05-16T04:20:14;42.53;;;21.07;;
7150;SDS011;3617;48.836;9.172;2023-05-16T04:23:09;45.83;;;21.97;;
7150;SDS011;3617;48.836;9.172;2023-05-16T04:25:43;41.27;;;20.67;;
7150;SDS011;3617;48.836;9.172;2023-05-16T04:28:10;44.60;;;22.27;;
7150;SDS011;3617;48.836;9.172;2023-05-16T04:30:36;47.87;;;22.57;;
7150;SDS011;3617;48.836;9.172;2023-05-16T04:33:02;46.90;;;21.00;;
7150;SDS011;3617;48.836;9.172;2023-05-16T04:35:31;41.00;;;20.73;;
7150;SDS011;3617;48.836;9.172;2023-05-16T04:38:20;42.80;;;21.50;;
7150;SDS011;3617;48.836;9.172;2023-05-16T04:40:47;45.53;;;22.30;;
7150;SDS011;3617;48.836;9.172;2023-05-16T04:43:16;41.47;;;21.13;;
7150;SDS011;3617;48.836;9.172;2023-05-16T04:45:49;43.80;;;19.77;;
7150;SDS011;3617;48.836;9.172;2023-05-16T04:48:17;40.13;;;19.37;;
7150;SDS011;3617;48.836;9.172;2023-05-16T04:50:44;44.10;;;21.47;;
7150;SDS011;3617;48.836;9.172;2023-05-16T04:53:10;44.03;;;21.33;;
7150;SDS011;3617;48.836;9.172;2023-05-16T04:55:36;42.87;;;19.80;;
7150;SDS011;3617;48.836;9.172;2023-05-16T04:58:02;45.50;;;21.33;;
7150;SDS011;3617;48.836;9.172;2023-05-16T05:00:28;42.73;;;21.07;;
7150;SDS011;3617;48.836;9.172;2023-05-16T05:02:54;46.27;;;21.70;;
7150;SDS011;3617;48.836;9.172;2023-05-16T05:05:20;41.97;;;21.07;;
7150;SDS011;3617;48.836;9.172;2023-05-16T05:07:46;39.90;;;19.33;;
7150;SDS011;3617;48.836;9.172;2023-05-16T05:10:12;48.63;;;20.77;;
7150;SDS011;3617;48.836;9.172;2023-05-16T05:12:38;43.20;;;20.20;;
7150;SDS011;3617;48.836;9.172;2023-05-16T05:15:05;36.33;;;20.20;;
7150;SDS011;3617;48.836;9.172;2023-05-16T05:17:31;36.20;;;19.03;;
7150;SDS011;3617;48.836;9.172;2023-05-16T05:19:57;39.37;;;19.97;;
7150;SDS011;3617;48.836;9.172;2023-05-16T05:22:23;38.90;;;19.43;;
7150;SDS011;3617;48.836;9.172;2023-05-16T05:24:49;38.77;;;20.83;;
7150;SDS011;3617;48.836;9.172;2023-05-16T05:27:15;38.83;;;19.93;;
7150;SDS011;3617;48.836;9.172;2023-05-16T05:29:41;40.47;;;19.90;;
7150;SDS011;3617;48.836;9.172;2023-05-16T05:32:07;42.40;;;21.33;;
7150;SDS011;3617;48.836;9.172;2023-05-16T05:34:33;40.03;;;19.07;;
7150;SDS011;3617;48.836;9.172;2023-05-16T05:36:59;38.73;;;20.87;;
7150;SDS011;3617;48.836;9.172;2023-05-16T05:39:25;41.63;;;20.53;;
7150;SDS011;3617;48.836;9.172;2023-05-16T05:41:51;38.37;;;19.80;;
7150;SDS011;3617;48.836;9.172;2023-05-16T05:44:17;41.67;;;19.80;;
7150;SDS011;3617;48.836;9.172;2023-05-16T05:46:43;39.83;;;20.50;;
7150;SDS011;3617;48.836;9.172;2023-05-16T05:49:10;42.10;;;20.27;;
7150;SDS011;3617;48.836;9.172;2023-05-16T05:51:36;39.93;;;19.83;;
7150;SDS011;3617;48.836;9.172;2023-05-16T05:54:02;35.73;;;18.77;;
7150;SDS011;3617;48.836;9.172;2023-05-16T05:56:28;37.40;;;19.03;;
7150;SDS011;3617;48.836;9.172;2023-05-16T05:58:54;34.00;;;18.40;;
7150;SDS011;3617;48.836;9.172;2023-05-16T06:01:20;34.07;;;18.87;;
7150;SDS011;3617;48.836;9.172;2023-05-16T06:03:47;34.30;;;17.70;;
7150;SDS011;3617;48.836;9.172;2023-05-16T06:06:13;33.47;;;17.80;;
7150;SDS011;3617;48.836;9.172;2023-05-16T06:08:40;35.40;;;18.50;;
7150;SDS011;3617;48.836;9.172;2023-05-16T06:11:06;33.80;;;18.70;;
7150;SDS011;3617;48.836;9.172;2023-05-16T06:13:33;32.17;;;18.47;;
7150;SDS011;3617;48.836;9.172;2023-05-16T06:15:59;31.70;;;17.27;;
7150;SDS011;3617;48.836;9.172;2023-05-16T06:18:25;33.83;;;16.83;;
7150;SDS011;3617;48.836;9.172;2023-05-16T06:20:51;30.00;;;16.33;;
7150;SDS011;3617;48.836;9.172;2023-05-16T06:23:18;30.33;;;16.63;;
7150;SDS011;3617;48.836;9.172;2023-05-16T06:25:45;29.03;;;17.37;;
7150;SDS011;3617;48.836;9.172;2023-05-16T06:28:11;28.97;;;16.03;;
7150;SDS011;3617;48.836;9.172;2023-05-16T06:30:37;29.37;;;16.87;;
7150;SDS011;3617;48.836;9.172;2023-05-16T06:33:03;28.33;;;15.87;;
7150;SDS011;3617;48.836;9.172;2023-05-16T06:35:29;32.80;;;15.90;;
7150;SDS011;3617;48.836;9.172;2023-05-16T06:37:56;26.67;;;15.70;;
7150;SDS011;3617;48.836;9.172;2023-05-16T06:40:22;27.50;;;14.73;;
7150;SDS011;3617;48.836;9.172;2023-05-16T06:42:48;24.73;;;15.20;;
7150;SDS011;3617;48.836;9.172;2023-05-16T06:45:14;22.13;;;14.47;;
7150;SDS011;3617;48.836;9.172;2023-05-16T06:47:40;24.37;;;13.87;;
7150;SDS011;3617;48.836;9.172;2023-05-16T06:50:06;24.00;;;14.87;;
7150;SDS011;3617;48.836;9.172;2023-05-16T06:52:34;24.03;;;13.97;;
7150;SDS011;3617;48.836;9.172;2023-05-16T06:55:00;25.03;;;14.47;;
7150;SDS011;3617;48.836;9.172;2023-05-16T06:57:26;25.37;;;13.73;;
7150;SDS011;3617;48.836;9.172;2023-05-16T06:59:53;23.17;;;12.67;;
7150;SDS011;3617;48.836;9.172;2023-05-16T07:02:19;23.13;;;13.50;;
7150;SDS011;3617;48.836;9.172;2023-05-16T07:04:45;24.53;;;13.93;;
7150;SDS011;3617;48.836;9.172;2023-05-16T07:07:12;21.43;;;12.10;;
7150;SDS011;3617;48.836;9.172;2023-05-16T07:09:38;21.13;;;12.57;;
7150;SDS011;3617;48.836;9.172;2023-05-16T07:12:04;22.53;;;12.47;;
7150;SDS011;3617;48.836;9.172;2023-05-16T07:14:30;20.43;;;12.37;;
7150;SDS011;3617;48.836;9.172;2023-05-16T07:16:56;19.17;;;11.73;;
7150;SDS011;3617;48.836;9.172;2023-05-16T07:19:22;17.40;;;10.57;;
7150;SDS011;3617;48.836;9.172;2023-05-16T07:21:48;18.77;;;10.30;;
7150;SDS011;3617;48.836;9.172;2023-05-16T07:24:14;12.97;;;8.57;;
7150;SDS011;3617;48.836;9.172;2023-05-16T07:26:40;13.37;;;8.13;;
7150;SDS011;3617;48.836;9.172;2023-05-16T07:29:06;12.63;;;7.40;;
7150;SDS011;3617;48.836;9.172;2023-05-16T07:31:32;11.57;;;7.73;;
7150;SDS011;3617;48.836;9.172;2023-05-16T07:33:58;12.93;;;8.17;;
7150;SDS011;3617;48.836;9.172;2023-05-16T07:36:24;12.70;;;7.60;;
7150;SDS011;3617;48.836;9.172;2023-05-16T07:38:50;11.07;;;7.77;;
7150;SDS011;3617;48.836;9.172;2023-05-16T07:41:16;11.93;;;7.53;;
7150;SDS011;3617;48.836;9.172;2023-05-16T07:43:42;12.43;;;7.33;;
7150;SDS011;3617;48.836;9.172;2023-05-16T07:46:09;12.53;;;8.10;;
7150;SDS011;3617;48.836;9.172;2023-05-16T07:48:35;11.97;;;8.33;;
7150;SDS011;3617;48.836;9.172;2023-05-16T07:51:01;10.90;;;8.03;;
7150;SDS011;3617;48.836;9.172;2023-05-16T07:53:27;11.33;;;7.80;;
7150;SDS011;3617;48.836;9.172;2023-05-16T07:55:53;11.87;;;7.83;;
7150;SDS011;3617;48.836;9.172;2023-05-16T07:58:19;11.47;;;8.43;;
7150;SDS011;3617;48.836;9.172;2023-05-16T08:00:46;10.57;;;7.63;;
7150;SDS011;3617;48.836;9.172;2023-05-16T08:03:12;11.57;;;7.57;;
7150;SDS011;3617;48.836;9.172;2023-05-16T08:05:38;9.17;;;6.70;;
7150;SDS011;3617;48.836;9.172;2023-05-16T08:08:04;10.27;;;7.20;;
7150;SDS011;3617;48.836;9.172;2023-05-16T08:10:30;9.93;;;7.40;;
7150;SDS011;3617;48.836;9.172;2023-05-16T08:12:56;12.37;;;8.60;;
7150;SDS011;3617;48.836;9.172;2023-05-16T08:15:22;9.67;;;6.77;;
7150;SDS011;3617;48.836;9.172;2023-05-16T08:17:48;11.80;;;7.20;;
7150;SDS011;3617;48.836;9.172;2023-05-16T08:20:15;11.20;;;7.17;;
7150;SDS011;3617;48.836;9.172;2023-05-16T08:22:41;9.33;;;7.17;;
7150;SDS011;3617;48.836;9.172;2023-05-16T08:25:07;10.37;;;7.60;;
7150;SDS011;3617;48.836;9.172;2023-05-16T08:27:33;14.90;;;8.10;;
7150;SDS011;3617;48.836;9.172;2023-05-16T08:29:59;12.83;;;7.60;;
7150;SDS011;3617;48.836;9.172;2023-05-16T08:32:25;16.30;;;8.10;;
7150;SDS011;3617;48.836;9.172;2023-05-16T08:34:51;11.93;;;7.87;;
7150;SDS011;3617;48.836;9.172;2023-05-16T08:37:17;12.57;;;8.70;;
7150;SDS011;3617;48.836;9.172;2023-05-16T08:39:43;13.03;;;8.50;;
7150;SDS011;3617;48.836;9.172;2023-05-16T08:42:10;15.17;;;9.27;;
7150;SDS011;3617;48.836;9.172;2023-05-16T08:44:36;14.00;;;9.20;;
7150;SDS011;3617;48.836;9.172;2023-05-16T08:47:06;19.23;;;10.00;;
7150;SDS011;3617;48.836;9.172;2023-05-16T08:49:36;14.27;;;8.47;;
7150;SDS011;3617;48.836;9.172;2023-05-16T08:52:04;17.77;;;10.20;;
7150;SDS011;3617;48.836;9.172;2023-05-16T08:54:32;17.17;;;10.40;;
7150;SDS011;3617;48.836;9.172;2023-05-16T08:56:58;13.43;;;8.57;;
7150;SDS011;3617;48.836;9.172;2023-05-16T08:59:25;14.57;;;9.10;;
7150;SDS011;3617;48.836;9.172;2023-05-16T09:01:51;14.67;;;8.57;;
7150;SDS011;3617;48.836;9.172;2023-05-16T09:04:17;18.47;;;10.00;;
7150;SDS011;3617;48.836;9.172;2023-05-16T09:06:44;19.43;;;11.00;;
7150;SDS011;3617;48.836;9.172;2023-05-16T09:09:10;16.67;;;10.43;;
7150;SDS011;3617;48.836;9.172;2023-05-16T09:11:36;17.63;;;10.17;;
7150;SDS011;3617;48.836;9.172;2023-05-16T09:14:03;17.90;;;11.07;;
7150;SDS011;3617;48.836;9.172;2023-05-16T09:16:29;17.43;;;10.80;;
7150;SDS011;3617;48.836;9.172;2023-05-16T09:18:57;19.67;;;11.33;;
7150;SDS011;3617;48.836;9.172;2023-05-16T09:21:30;22.93;;;12.43;;
7150;SDS011;3617;48.836;9.172;2023-05-16T09:24:01;19.73;;;12.00;;
7150;SDS011;3617;48.836;9.172;2023-05-16T09:26:28;23.47;;;12.13;;
7150;SDS011;3617;48.836;9.172;2023-05-16T09:28:55;21.30;;;11.77;;
7150;SDS011;3617;48.836;9.172;2023-05-16T09:31:22;20.00;;;12.10;;
7150;SDS011;3617;48.836;9.172;2023-05-16T09:33:51;18.00;;;10.67;;
7150;SDS011;3617;48.836;9.172;2023-05-16T09:36:17;19.87;;;11.43;;
7150;SDS011;3617;48.836;9.172;2023-05-16T09:38:43;18.10;;;11.13;;
7150;SDS011;3617;48.836;9.172;2023-05-16T09:41:09;20.50;;;11.50;;
7150;SDS011;3617;48.836;9.172;2023-05-16T09:43:39;17.67;;;10.57;;
7150;SDS011;3617;48.836;9.172;2023-05-16T09:46:05;18.10;;;10.90;;
7150;SDS011;3617;48.836;9.172;2023-05-16T09:48:32;16.60;;;10.77;;
7150;SDS011;3617;48.836;9.172;2023-05-16T09:50:58;17.93;;;10.90;;
7150;SDS011;3617;48.836;9.172;2023-05-16T09:53:29;23.03;;;10.30;;
7150;SDS011;3617;48.836;9.172;2023-05-16T09:56:02;16.23;;;9.83;;
7150;SDS011;3617;48.836;9.172;2023-05-16T09:58:29;18.17;;;9.93;;
7150;SDS011;3617;48.836;9.172;2023-05-16T10:00:56;16.40;;;10.37;;
7150;SDS011;3617;48.836;9.172;2023-05-16T10:03:23;16.23;;;10.33;;
7150;SDS011;3617;48.836;9.172;2023-05-16T10:05:49;16.10;;;9.80;;
7150;SDS011;3617;48.836;9.172;2023-05-16T10:08:16;15.03;;;9.60;;
7150;SDS011;3617;48.836;9.172;2023-05-16T10:10:44;14.37;;;8.70;;
7150;SDS011;3617;48.836;9.172;2023-05-16T10:13:10;15.30;;;9.50;;
7150;SDS011;3617;48.836;9.172;2023-05-16T10:15:36;16.70;;;9.83;;
7150;SDS011;3617;48.836;9.172;2023-05-16T10:18:03;16.00;;;8.93;;
7150;SDS011;3617;48.836;9.172;2023-05-16T10:20:31;17.07;;;9.43;;
7150;SDS011;3617;48.836;9.172;2023-05-16T10:22:58;17.03;;;9.37;;
7150;SDS011;3617;48.836;9.172;2023-05-16T10:27:53;17.83;;;10.00;;
7150;SDS011;3617;48.836;9.172;2023-05-16T10:30:19;15.17;;;9.37;;
7150;SDS011;3617;48.836;9.172;2023-05-16T10:32:45;15.67;;;8.60;;
7150;SDS011;3617;48.836;9.172;2023-05-16T10:35:12;17.23;;;9.07;;
7150;SDS011;3617;48.836;9.172;2023-05-16T10:37:38;14.47;;;8.73;;
7150;SDS011;3617;48.836;9.172;2023-05-16T10:40:05;14.70;;;9.80;;
7150;SDS011;3617;48.836;9.172;2023-05-16T10:42:32;13.70;;;8.70;;
7150;SDS011;3617;48.836;9.172;2023-05-16T10:45:16;14.90;;;8.97;;
7150;SDS011;3617;48.836;9.172;2023-05-16T10:47:59;12.40;;;7.60;;
7150;SDS011;3617;48.836;9.172;2023-05-16T10:50:32;14.00;;;8.57;;
7150;SDS011;3617;48.836;9.172;2023-05-16T10:56:04;12.80;;;8.23;;
7150;SDS011;3617;48.836;9.172;2023-05-16T11:06:26;11.90;;;7.23;;
7150;SDS011;3617;48.836;9.172;2023-05-16T11:11:47;12.30;;;6.60;;
7150;SDS011;3617;48.836;9.172;2023-05-16T11:16:50;9.93;;;6.07;;
7150;SDS011;3617;48.836;9.172;2023-05-16T11:22:08;9.77;;;5.73;;
7150;SDS011;3617;48.836;9.172;2023-05-16T11:24:37;8.83;;;5.33;;
7150;SDS011;3617;48.836;9.172;2023-05-16T11:27:04;8.20;;;5.60;;
7150;SDS011;3617;48.836;9.172;2023-05-16T11:29:31;7.57;;;5.20;;
7150;SDS011;3617;48.836;9.172;2023-05-16T11:31:58;9.60;;;5.43;;
7150;SDS011;3617;48.836;9.172;2023-05-16T11:34:24;8.83;;;5.60;;
7150;SDS011;3617;48.836;9.172;2023-05-16T11:36:51;8.07;;;5.03;;
7150;SDS011;3617;48.836;9.172;2023-05-16T11:39:17;8.47;;;5.37;;
7150;SDS011;3617;48.836;9.172;2023-05-16T11:41:43;8.63;;;5.77;;
7150;SDS011;3617;48.836;9.172;2023-05-16T11:44:10;8.57;;;5.33;;
7150;SDS011;3617;48.836;9.172;2023-05-16T11:46:38;6.60;;;4.60;;
7150;SDS011;3617;48.836;9.172;2023-05-16T11:49:10;6.67;;;4.63;;
7150;SDS011;3617;48.836;9.172;2023-05-16T11:51:37;6.83;;;4.70;;
7150;SDS011;3617;48.836;9.172;2023-05-16T11:54:03;8.20;;;5.10;;
7150;SDS011;3617;48.836;9.172;2023-05-16T11:56:29;9.67;;;5.10;;
7150;SDS011;3617;48.836;9.172;2023-05-16T11:58:56;8.73;;;5.30;;
7150;SDS011;3617;48.836;9.172;2023-05-16T12:01:23;7.10;;;5.00;;
7150;SDS011;3617;48.836;9.172;2023-05-16T12:03:56;8.33;;;5.37;;
7150;SDS011;3617;48.836;9.172;2023-05-16T12:06:22;8.87;;;4.97;;
7150;SDS011;3617;48.836;9.172;2023-05-16T12:08:48;7.03;;;5.13;;
7150;SDS011;3617;48.836;9.172;2023-05-16T12:11:15;7.07;;;4.80;;
7150;SDS011;3617;48.836;9.172;2023-05-16T12:13:41;6.90;;;4.30;;
7150;SDS011;3617;48.836;9.172;2023-05-16T12:16:08;6.60;;;4.37;;
7150;SDS011;3617;48.836;9.172;2023-05-16T12:18:35;6.77;;;4.67;;
7150;SDS011;3617;48.836;9.172;2023-05-16T12:21:03;6.07;;;4.30;;
7150;SDS011;3617;48.836;9.172;2023-05-16T12:23:29;6.57;;;4.40;;
7150;SDS011;3617;48.836;9.172;2023-05-16T12:25:57;4.83;;;3.40;;
7150;SDS011;3617;48.836;9.172;2023-05-16T12:28:31;5.20;;;3.70;;
7150;SDS011;3617;48.836;9.172;2023-05-16T12:31:01;4.37;;;3.50;;
7150;SDS011;3617;48.836;9.172;2023-05-16T12:33:27;3.47;;;2.60;;
7150;SDS011;3617;48.836;9.172;2023-05-16T12:35:53;3.73;;;2.87;;
7150;SDS011;3617;48.836;9.172;2023-05-16T12:38:19;4.20;;;3.10;;
7150;SDS011;3617;48.836;9.172;2023-05-16T12:40:46;3.40;;;2.80;;
7150;SDS011;3617;48.836;9.172;2023-05-16T12:43:16;5.70;;;3.37;;
7150;SDS011;3617;48.836;9.172;2023-05-16T12:45:54;3.83;;;2.90;;
7150;SDS011;3617;48.836;9.172;2023-05-16T12:48:21;4.27;;;2.73;;
7150;SDS011;3617;48.836;9.172;2023-05-16T12:50:47;3.97;;;2.73;;
7150;SDS011;3617;48.836;9.172;2023-05-16T12:53:15;3.20;;;2.50;;
7150;SDS011;3617;48.836;9.172;2023-05-16T12:55:41;3.60;;;2.90;;
7150;SDS011;3617;48.836;9.172;2023-05-16T12:58:08;3.20;;;2.57;;
7150;SDS011;3617;48.836;9.172;2023-05-16T13:00:35;2.63;;;2.40;;
7150;SDS011;3617;48.836;9.172;2023-05-16T13:03:02;4.37;;;2.73;;
7150;SDS011;3617;48.836;9.172;2023-05-16T13:05:28;3.43;;;2.50;;
7150;SDS011;3617;48.836;9.172;2023-05-16T13:07:54;3.00;;;2.57;;
7150;SDS011;3617;48.836;9.172;2023-05-16T13:10:20;5.20;;;2.40;;
7150;SDS011;3617;48.836;9.172;2023-05-16T13:12:46;2.40;;;2.20;;
7150;SDS011;3617;48.836;9.172;2023-05-16T13:15:12;3.00;;;2.30;;
7150;SDS011;3617;48.836;9.172;2023-05-16T13:17:39;2.73;;;2.10;;
7150;SDS011;3617;48.836;9.172;2023-05-16T13:20:06;2.53;;;2.10;;
7150;SDS011;3617;48.836;9.172;2023-05-16T13:22:34;3.23;;;2.20;;
7150;SDS011;3617;48.836;9.172;2023-05-16T13:25:00;2.50;;;2.20;;
7150;SDS011;3617;48.836;9.172;2023-05-16T13:27:26;2.10;;;1.73;;
7150;SDS011;3617;48.836;9.172;2023-05-16T13:29:52;4.17;;;2.13;;
7150;SDS011;3617;48.836;9.172;2023-05-16T13:32:18;2.13;;;1.83;;
7150;SDS011;3617;48.836;9.172;2023-05-16T13:34:44;2.27;;;1.97;;
7150;SDS011;3617;48.836;9.172;2023-05-16T13:37:10;3.00;;;2.20;;
7150;SDS011;3617;48.836;9.172;2023-05-16T13:39:36;3.13;;;2.00;;
7150;SDS011;3617;48.836;9.172;2023-05-16T13:42:02;4.13;;;2.37;;
7150;SDS011;3617;48.836;9.172;2023-05-16T13:44:28;3.03;;;2.40;;
7150;SDS011;3617;48.836;9.172;2023-05-16T13:46:55;2.33;;;2.00;;
7150;SDS011;3617;48.836;9.172;2023-05-16T13:49:22;3.10;;;2.37;;
7150;SDS011;3617;48.836;9.172;2023-05-16T13:51:48;2.53;;;2.00;;
7150;SDS011;3617;48.836;9.172;2023-05-16T13:54:15;2.50;;;1.90;;
7150;SDS011;3617;48.836;9.172;2023-05-16T13:56:41;2.70;;;2.20;;
7150;SDS011;3617;48.836;9.172;2023-05-16T13:59:08;2.57;;;2.07;;
7150;SDS011;3617;48.836;9.172;2023-05-16T14:01:34;2.43;;;2.00;;
7150;SDS011;3617;48.836;9.172;2023-05-16T14:04:00;2.40;;;2.10;;
7150;SDS011;3617;48.836;9.172;2023-05-16T14:06:26;2.70;;;2.00;;
7150;SDS011;3617;48.836;9.172;2023-05-16T14:08:52;4.67;;;2.30;;
7150;SDS011;3617;48.836;9.172;2023-05-16T14:11:18;2.63;;;2.20;;
7150;SDS011;3617;48.836;9.172;2023-05-16T14:13:47;4.03;;;2.40;;
7150;SDS011;3617;48.836;9.172;2023-05-16T14:16:13;3.83;;;2.50;;
7150;SDS011;3617;48.836;9.172;2023-05-16T14:18:39;2.50;;;2.30;;
7150;SDS011;3617;48.836;9.172;2023-05-16T14:21:05;2.77;;;2.30;;
7150;SDS011;3617;48.836;9.172;2023-05-16T14:23:31;4.40;;;2.13;;
7150;SDS011;3617;48.836;9.172;2023-05-16T14:25:57;3.13;;;2.03;;
7150;SDS011;3617;48.836;9.172;2023-05-16T14:28:23;2.77;;;1.93;;
7150;SDS011;3617;48.836;9.172;2023-05-16T14:30:49;2.93;;;2.07;;
7150;SDS011;3617;48.836;9.172;2023-05-16T14:33:15;4.40;;;2.07;;
7150;SDS011;3617;48.836;9.172;2023-05-16T14:35:41;2.57;;;2.10;;
7150;SDS011;3617;48.836;9.172;2023-05-16T14:38:07;1.83;;;1.63;;
7150;SDS011;3617;48.836;9.172;2023-05-16T14:40:34;2.90;;;1.97;;
7150;SDS011;3617;48.836;9.172;2023-05-16T14:43:00;1.90;;;1.70;;
7150;SDS011;3617;48.836;9.172;2023-05-16T14:45:28;2.83;;;1.50;;
7150;SDS011;3617;48.836;9.172;2023-05-16T14:47:54;1.97;;;1.60;;
7150;SDS011;3617;48.836;9.172;2023-05-16T14:50:20;1.77;;;1.50;;
7150;SDS011;3617;48.836;9.172;2023-05-16T14:52:46;2.37;;;1.30;;
7150;SDS011;3617;48.836;9.172;2023-05-16T14:55:12;2.20;;;1.60;;
7150;SDS011;3617;48.836;9.172;2023-05-16T14:57:38;2.57;;;1.30;;
7150;SDS011;3617;48.836;9.172;2023-05-16T15:00:04;2.40;;;1.40;;
7150;SDS011;3617;48.836;9.172;2023-05-16T15:02:31;1.77;;;1.30;;
7150;SDS011;3617;48.836;9.172;2023-05-16T15:04:57;2.27;;;1.33;;
7150;SDS011;3617;48.836;9.172;2023-05-16T15:07:23;1.33;;;1.23;;
7150;SDS011;3617;48.836;9.172;2023-05-16T15:09:50;2.63;;;1.20;;
7150;SDS011;3617;48.836;9.172;2023-05-16T15:12:15;3.17;;;1.37;;
7150;SDS011;3617;48.836;9.172;2023-05-16T15:14:41;3.40;;;1.50;;
7150;SDS011;3617;48.836;9.172;2023-05-16T15:17:07;1.63;;;1.40;;
7150;SDS011;3617;48.836;9.172;2023-05-16T15:19:33;2.00;;;1.33;;
7150;SDS011;3617;48.836;9.172;2023-05-16T15:21:59;1.60;;;1.20;;
7150;SDS011;3617;48.836;9.172;2023-05-16T15:24:26;2.47;;;1.60;;
7150;SDS011;3617;48.836;9.172;2023-05-16T15:26:52;1.47;;;1.37;;
7150;SDS011;3617;48.836;9.172;2023-05-16T15:29:18;1.83;;;1.30;;
7150;SDS011;3617;48.836;9.172;2023-05-16T15:31:45;3.00;;;1.47;;
7150;SDS011;3617;48.836;9.172;2023-05-16T15:34:11;1.90;;;1.40;;
7150;SDS011;3617;48.836;9.172;2023-05-16T15:36:37;1.97;;;1.50;;
7150;SDS011;3617;48.836;9.172;2023-05-16T15:39:03;2.30;;;1.53;;
7150;SDS011;3617;48.836;9.172;2023-05-16T15:41:29;2.57;;;1.60;;
7150;SDS011;3617;48.836;9.172;2023-05-16T15:43:55;2.67;;;1.57;;